Time;durP1;ratioP1;P1;durP2;ratioP2;P2;SDS_P1;SDS_P2;PMS_P1;PMS_P2;Temp;Humidity;BMP_temperature;BMP_pressure;BME280_temperature;BME280_humidity;BME280_pressure;Samples;Min_cycle;Max_cycle;Signal;HPM_P1;HPM_P2
2022/04/03 00:03:41;;;;;;;0.10;0.10;;;;;;;-0.13;56.38;102277.78;10544047;28;20064;-77
2022/04/03 00:08:42;;;;;;;0.00;0.00;;;;;;;-0.06;56.69;102275.06;10526041;28;20056;-76
2022/04/03 00:13:44;;;;;;;0.08;0.08;;;;;;;-0.07;56.07;102273.28;10525383;28;20554;-76
2022/04/03 00:18:46;;;;;;;0.00;0.00;;;;;;;-0.15;56.38;102269.16;10542385;28;20063;-76
2022/04/03 00:23:48;;;;;;;0.05;0.05;;;;;;;-0.03;55.69;102275.31;10543334;28;20111;-76
2022/04/03 00:28:50;;;;;;;0.00;0.00;;;;;;;-0.24;56.53;102270.84;10524613;28;20048;-77
2022/04/03 00:33:53;;;;;;;0.00;0.00;;;;;;;-0.25;56.97;102275.03;10542247;28;20047;-76
2022/04/03 00:38:54;;;;;;;0.00;0.00;;;;;;;-0.53;57.94;102269.97;10524097;28;20059;-76
2022/04/03 00:43:58;;;;;;;0.00;0.00;;;;;;;-0.48;57.49;102267.81;10541781;28;20134;-78
2022/04/03 00:49:00;;;;;;;0.00;0.00;;;;;;;-0.36;57.17;102268.06;10506666;28;20127;-77
2022/04/03 00:54:03;;;;;;;0.00;0.00;;;;;;;-0.69;58.41;102272.69;10523109;28;20132;-77
2022/04/03 00:59:04;;;;;;;0.00;0.00;;;;;;;-0.86;59.76;102273.63;10557241;28;20121;-77
2022/04/03 01:04:06;;;;;;;0.00;0.00;;;;;;;-0.81;59.09;102271.53;10506689;28;20044;-76
2022/04/03 01:09:09;;;;;;;0.00;0.00;;;;;;;-0.85;59.51;102271.97;10523019;28;20075;-77
2022/04/03 01:14:11;;;;;;;0.03;0.03;;;;;;;-0.72;59.32;102272.41;10540547;28;20043;-76
2022/04/03 01:19:12;;;;;;;0.00;0.00;;;;;;;-0.62;58.95;102269.09;10540531;28;20115;-75
2022/04/03 01:24:18;;;;;;;0.10;0.10;;;;;;;-0.62;59.07;102278.31;10539856;28;20076;-75
2022/04/03 01:29:20;;;;;;;0.00;0.00;;;;;;;-0.66;58.79;102262.84;10539502;28;20044;-76
2022/04/03 01:34:22;;;;;;;0.00;0.00;;;;;;;-0.87;60.52;102270.97;10521934;28;20085;-76
2022/04/03 01:39:24;;;;;;;26.30;5.18;;;;;;;-0.86;60.14;102267.69;10521949;28;20048;-76
2022/04/03 01:44:25;;;;;;;0.00;0.00;;;;;;;-0.69;59.08;102262.56;10539040;28;20446;-76
2022/04/03 01:49:27;;;;;;;0.10;0.10;;;;;;;-0.99;60.38;102264.00;10521512;28;20544;-76
2022/04/03 01:54:28;;;;;;;0.00;0.00;;;;;;;-0.87;59.58;102261.72;10540848;28;20465;-75
2022/04/03 01:59:30;;;;;;;0.00;0.00;;;;;;;-1.09;59.75;102257.91;10521315;28;20505;-77
2022/04/03 02:04:32;;;;;;;0.00;0.00;;;;;;;-1.13;61.41;102266.84;10538133;28;20068;-77
2022/04/03 02:09:34;;;;;;;0.05;0.05;;;;;;;-1.20;61.09;102264.47;10533144;28;20461;-78
2022/04/03 02:14:36;;;;;;;0.08;0.08;;;;;;;-1.23;61.42;102259.16;10533495;28;20128;-77
2022/04/03 02:19:38;;;;;;;0.00;0.00;;;;;;;-1.42;62.04;102261.56;10533391;28;20127;-76
2022/04/03 02:24:40;;;;;;;0.00;0.00;;;;;;;-1.23;61.67;102264.22;10532899;28;20069;-77
2022/04/03 02:29:42;;;;;;;0.08;0.08;;;;;;;-1.19;62.04;102261.22;10514794;28;20135;-77
2022/04/03 02:34:43;;;;;;;0.00;0.00;;;;;;;-1.10;61.80;102266.25;10532496;28;20529;-78
2022/04/03 02:39:45;;;;;;;0.10;0.10;;;;;;;-1.18;61.34;102263.00;10534743;28;20044;-76
2022/04/03 02:44:51;;;;;;;0.00;0.00;;;;;;;-1.29;61.73;102267.03;10537346;28;20079;-76
2022/04/03 02:49:53;;;;;;;0.00;0.00;;;;;;;-1.34;62.51;102269.13;10522740;28;20466;-76
2022/04/03 02:54:56;;;;;;;0.10;0.10;;;;;;;-1.31;62.20;102261.84;10540378;28;20048;-77
2022/04/03 02:59:59;;;;;;;0.00;0.00;;;;;;;-1.47;63.19;102269.56;10540783;28;20079;-77
2022/04/03 03:05:00;;;;;;;0.10;0.10;;;;;;;-1.76;62.79;102262.59;10538553;28;20109;-78
2022/04/03 03:10:03;;;;;;;0.00;0.00;;;;;;;-1.70;63.50;102264.81;10521880;28;20097;-77
2022/04/03 03:15:05;;;;;;;0.00;0.00;;;;;;;-1.63;62.89;102267.19;10539325;28;20044;-78
2022/04/03 03:20:07;;;;;;;0.00;0.00;;;;;;;-1.57;62.51;102266.91;10521701;28;20112;-78
2022/04/03 03:25:11;;;;;;;0.00;0.00;;;;;;;-1.68;63.69;102267.50;10521436;28;20040;-78
2022/04/03 03:30:12;;;;;;;0.00;0.00;;;;;;;-1.72;63.19;102261.25;10539053;28;20047;-77
2022/04/03 03:35:14;;;;;;;0.00;0.00;;;;;;;-1.44;64.22;102261.38;10539275;28;20046;-76
2022/04/03 03:40:16;;;;;;;0.00;0.00;;;;;;;-1.41;64.38;102265.84;10520852;28;20048;-77
2022/04/03 03:45:18;;;;;;;0.03;0.03;;;;;;;-1.33;64.35;102258.25;10503551;28;20056;-77
2022/04/03 03:50:19;;;;;;;0.00;0.00;;;;;;;-1.38;64.89;102262.00;10538209;28;20047;-77
2022/04/03 03:55:21;;;;;;;0.00;0.00;;;;;;;-1.32;65.13;102260.06;10538173;28;20079;-77
2022/04/03 04:00:23;;;;;;;0.10;0.10;;;;;;;-1.44;65.50;102259.75;10520521;28;20074;-77
2022/04/03 04:05:24;;;;;;;0.00;0.00;;;;;;;-2.05;65.11;102264.81;10537585;28;20058;-77
2022/04/03 04:10:26;;;;;;;0.00;0.00;;;;;;;-2.44;66.57;102276.09;10537706;28;20094;-77
2022/04/03 04:15:34;;;;;;;0.00;0.00;;;;;;;-2.57;67.87;102270.56;10537210;28;20040;-77
2022/04/03 04:20:43;;;;;;;0.30;0.30;;;;;;;-2.52;68.76;102278.59;10518795;28;20048;-77
2022/04/03 04:25:45;;;;;;;0.00;0.00;;;;;;;-2.58;69.71;102281.41;10519751;28;20055;-78
2022/04/03 04:30:48;;;;;;;0.00;0.00;;;;;;;-2.65;69.10;102277.38;10536597;28;20039;-77
2022/04/03 04:35:52;;;;;;;0.10;0.10;;;;;;;-2.76;70.66;102282.94;10518940;28;20040;-78
2022/04/03 04:40:54;;;;;;;0.00;0.00;;;;;;;-2.32;69.97;102278.97;10518297;28;20048;-77
2022/04/03 04:45:56;;;;;;;0.00;0.00;;;;;;;-2.30;69.16;102274.06;10533781;28;20105;-77
2022/04/03 04:51:01;;;;;;;0.00;0.00;;;;;;;-2.13;68.38;102274.13;10518099;28;20550;-77
2022/04/03 04:56:03;;;;;;;0.52;0.52;;;;;;;-2.24;68.87;102283.16;10535950;28;20048;-78
2022/04/03 05:01:04;;;;;;;0.10;0.10;;;;;;;-2.30;70.09;102282.56;10517157;28;20196;-77
2022/04/03 05:06:07;;;;;;;0.10;0.10;;;;;;;-1.98;69.49;102287.41;10516507;28;20135;-78
2022/04/03 05:11:08;;;;;;;0.10;0.10;;;;;;;-1.55;67.92;102287.28;10535291;28;20051;-78
2022/04/03 05:16:10;;;;;;;6.82;6.03;;;;;;;-1.60;67.77;102292.75;10516727;28;20399;-77
2022/04/03 05:21:12;;;;;;;0.10;0.10;;;;;;;-1.73;68.21;102299.00;10535525;28;20051;-77
2022/04/03 05:26:16;;;;;;;0.00;0.00;;;;;;;-1.49;68.28;102296.31;10533578;28;20036;-76
2022/04/03 05:31:17;;;;;;;0.00;0.00;;;;;;;-1.30;67.38;102299.00;10532958;28;20140;-78
2022/04/03 05:36:19;;;;;;;0.00;0.00;;;;;;;-1.32;67.72;102303.03;10516401;28;20048;-77
2022/04/03 05:41:21;;;;;;;0.00;0.00;;;;;;;-1.72;69.22;102304.19;10527949;28;20044;-77
2022/04/03 05:46:34;;;;;;;0.10;0.10;;;;;;;-0.93;67.88;102309.22;10515791;28;20040;-77
2022/04/03 05:51:37;;;;;;;0.25;0.25;;;;;;;-1.24;68.81;102307.94;10531633;28;20047;-76
2022/04/03 05:56:39;;;;;;;1.27;0.63;;;;;;;-1.13;68.58;102303.16;10532538;28;20071;-77
2022/04/03 06:01:40;;;;;;;0.43;0.43;;;;;;;-0.96;70.06;102302.25;10548925;28;20139;-77
2022/04/03 06:06:42;;;;;;;0.85;0.55;;;;;;;-0.71;69.69;102303.66;10515123;28;20445;-77
2022/04/03 06:11:44;;;;;;;0.00;0.00;;;;;;;-0.55;68.82;102296.75;10532594;28;20542;-77
2022/04/03 06:16:45;;;;;;;0.00;0.00;;;;;;;-0.18;68.27;102301.78;10537909;28;20067;-77
2022/04/03 06:21:47;;;;;;;0.10;0.10;;;;;;;0.07;67.13;102298.97;10540988;28;20123;-76
2022/04/03 06:26:48;;;;;;;0.00;0.00;;;;;;;0.49;66.43;102301.03;10523387;28;20093;-77
2022/04/03 06:31:50;;;;;;;0.93;0.30;;;;;;;0.07;69.17;102291.38;10540763;28;20067;-77
2022/04/03 06:36:53;;;;;;;0.20;0.20;;;;;;;0.30;67.26;102301.94;10543655;28;20105;-76
2022/04/03 06:41:54;;;;;;;7.13;3.17;;;;;;;0.85;66.93;102312.69;10545186;28;20059;-76
2022/04/03 06:46:56;;;;;;;0.35;0.35;;;;;;;0.73;65.98;102301.44;10527472;28;20047;-76
2022/04/03 06:58:33;;;;;;;0.10;0.10;;;;;;;1.13;65.53;102298.97;10527714;28;20036;-76
2022/04/03 07:03:35;;;;;;;0.45;0.45;;;;;;;1.46;64.74;102303.50;10528065;28;20040;-77
2022/04/03 07:08:36;;;;;;;0.13;0.10;;;;;;;1.93;62.97;102309.94;10545966;28;20044;-76
2022/04/03 07:13:38;;;;;;;0.52;0.52;;;;;;;1.98;62.96;102306.13;10511108;28;20144;-77
2022/04/03 07:18:39;;;;;;;7.25;0.75;;;;;;;1.69;62.96;102312.19;10527907;28;20075;-77
2022/04/03 07:23:42;;;;;;;1.27;0.73;;;;;;;1.77;62.63;102313.72;10502525;28;20043;-77
2022/04/03 07:28:44;;;;;;;0.00;0.00;;;;;;;2.41;62.36;102318.97;10504316;28;20099;-77
2022/04/03 07:33:46;;;;;;;0.17;0.17;;;;;;;3.08;61.55;102313.34;10486061;28;20055;-76
2022/04/03 07:38:49;;;;;;;0.00;0.00;;;;;;;3.12;61.39;102317.00;10518644;28;20048;-76
2022/04/03 07:43:51;;;;;;;0.00;0.00;;;;;;;3.81;60.16;102311.25;10508395;28;20556;-76
2022/04/03 07:48:52;;;;;;;0.00;0.00;;;;;;;4.73;57.79;102312.09;10544166;28;20040;-77
2022/04/03 07:53:56;;;;;;;0.85;0.52;;;;;;;5.23;57.25;102302.81;10526710;28;20051;-76
2022/04/03 07:58:58;;;;;;;0.00;0.00;;;;;;;5.72;55.70;102297.66;10526217;28;20108;-77
2022/04/03 08:04:00;;;;;;;0.00;0.00;;;;;;;6.53;55.60;102303.88;10526208;28;20036;-76
2022/04/03 08:09:02;;;;;;;1.45;0.10;;;;;;;6.46;51.80;102311.94;10525957;28;20102;-77
2022/04/03 08:14:03;;;;;;;0.00;0.00;;;;;;;6.50;52.56;102309.69;10525547;28;20139;-77
2022/04/03 08:19:09;;;;;;;0.00;0.00;;;;;;;7.00;53.18;102312.81;10525632;28;20047;-77
2022/04/03 08:24:10;;;;;;;2.05;0.45;;;;;;;7.62;50.25;102301.25;10546100;28;20066;-76
2022/04/03 08:36:05;;;;;;;0.00;0.00;;;;;;;7.69;50.53;102312.75;10543215;28;20409;-77
2022/04/03 08:42:15;;;;;;;0.00;0.00;;;;;;;9.02;49.35;102307.56;10557340;28;20491;-77
2022/04/03 08:47:17;;;;;;;0.00;0.00;;;;;;;8.34;49.02;102312.28;10525899;28;20047;-77
2022/04/03 08:52:20;;;;;;;0.28;0.17;;;;;;;8.74;47.26;102303.47;10540871;28;20146;-78
2022/04/03 08:57:23;;;;;;;0.00;0.00;;;;;;;9.60;46.85;102294.38;10540738;28;20040;-77
2022/04/03 09:02:26;;;;;;;0.00;0.00;;;;;;;9.40;45.91;102287.25;10550472;28;20074;-77
2022/04/03 09:07:27;;;;;;;0.00;0.00;;;;;;;10.24;45.98;102289.84;10540335;28;20052;-78
2022/04/03 09:12:29;;;;;;;0.00;0.00;;;;;;;10.39;45.29;102285.44;10523437;28;20044;-77
2022/04/03 09:17:31;;;;;;;0.13;0.00;;;;;;;10.23;44.56;102277.75;10523023;28;20071;-78
2022/04/03 09:22:35;;;;;;;0.00;0.00;;;;;;;9.00;47.08;102275.72;10482768;28;20139;-77
2022/04/03 09:28:08;;;;;;;0.00;0.00;;;;;;;9.43;44.69;102272.88;10539458;28;20094;-77
2022/04/03 09:33:26;;;;;;;0.00;0.00;;;;;;;8.25;47.31;102283.53;10521636;28;20407;-76
2022/04/03 09:38:29;;;;;;;0.00;0.00;;;;;;;10.00;44.14;102264.63;10540289;28;20062;-77
2022/04/03 09:43:35;;;;;;;0.00;0.00;;;;;;;9.13;46.43;102262.72;10573281;27;20139;-78
2022/04/03 09:48:48;;;;;;;0.00;0.00;;;;;;;8.93;46.60;102253.06;10540275;28;20490;-76
2022/04/03 09:53:52;;;;;;;0.00;0.00;;;;;;;8.46;47.17;102258.19;10538724;28;20491;-77
2022/04/03 09:58:57;;;;;;;0.00;0.00;;;;;;;7.79;46.62;102256.06;10538633;28;20048;-76
2022/04/03 10:04:01;;;;;;;0.00;0.00;;;;;;;7.55;49.75;102243.56;10538578;28;20051;-76
2022/04/03 10:09:03;;;;;;;0.00;0.00;;;;;;;7.89;48.72;102254.94;10538007;28;20487;-75
2022/04/03 10:14:06;;;;;;;0.00;0.00;;;;;;;7.48;47.52;102244.00;10539652;28;20072;-75
2022/04/03 10:19:07;;;;;;;0.00;0.00;;;;;;;7.18;50.16;102241.34;10539529;28;20134;-77
2022/04/03 10:24:15;;;;;;;0.45;0.45;;;;;;;6.94;49.01;102251.84;10521577;28;20127;-75
2022/04/03 10:29:18;;;;;;;0.20;0.17;;;;;;;6.42;52.32;102258.78;10539900;28;20036;-75
2022/04/03 10:34:21;;;;;;;0.00;0.00;;;;;;;6.80;53.34;102252.66;10554800;28;20040;-76
2022/04/03 10:39:25;;;;;;;0.00;0.00;;;;;;;6.94;51.95;102256.97;10539153;28;20097;-76
2022/04/03 10:44:27;;;;;;;0.00;0.00;;;;;;;7.70;51.03;102242.72;10539691;28;20111;-75
2022/04/03 10:49:40;;;;;;;0.00;0.00;;;;;;;8.96;48.30;102228.41;10538783;28;20135;-76
2022/04/03 10:54:48;;;;;;;0.00;0.00;;;;;;;9.56;45.05;102228.09;10537523;28;20093;-76
2022/04/03 11:00:12;;;;;;;1.35;0.47;;;;;;;7.86;50.02;102229.09;10538717;28;20071;-75
2022/04/03 11:05:32;;;;;;;0.00;0.00;;;;;;;7.47;49.11;102235.41;10546475;28;20085;-75
2022/04/03 11:10:45;;;;;;;0.00;0.00;;;;;;;7.82;49.16;102222.91;10546081;28;20498;-76
2022/04/03 11:16:01;;;;;;;0.00;0.00;;;;;;;9.46;43.87;102206.16;10561827;28;20040;-76
2022/04/03 11:21:22;;;;;;;0.20;0.05;;;;;;;8.53;47.95;102203.81;10527632;28;20040;-75
2022/04/03 11:26:24;;;;;;;0.00;0.00;;;;;;;7.61;49.90;102213.16;10527586;28;20453;-75
2022/04/03 11:31:36;;;;;;;0.00;0.00;;;;;;;7.50;50.36;102210.75;10545388;28;20036;-75
2022/04/03 11:36:38;;;;;;;0.22;0.13;;;;;;;7.33;52.45;102199.50;10527095;28;20055;-76
2022/04/03 11:41:40;;;;;;;0.00;0.00;;;;;;;9.48;50.65;102191.69;10544517;28;20115;-76
2022/04/03 11:46:48;;;;;;;0.38;0.35;;;;;;;9.47;52.15;102184.78;10527344;28;20093;-75
2022/04/03 11:51:56;;;;;;;0.00;0.00;;;;;;;9.49;45.51;102187.41;10544419;28;20055;-75
2022/04/03 11:57:00;;;;;;;0.00;0.00;;;;;;;10.11;44.49;102178.47;10544624;28;20072;-76
2022/04/03 12:02:14;;;;;;;0.00;0.00;;;;;;;9.72;44.95;102173.13;10544266;28;20090;-77
2022/04/03 12:07:16;;;;;;;1.55;0.17;;;;;;;11.43;44.13;102156.94;10544276;28;20061;-76
2022/04/03 12:12:23;;;;;;;0.00;0.00;;;;;;;10.01;41.66;102163.41;10525539;28;20382;-75
2022/04/03 12:17:24;;;;;;;0.00;0.00;;;;;;;9.54;45.18;102162.81;10510773;28;20496;-77
2022/04/03 12:22:26;;;;;;;0.08;0.00;;;;;;;9.09;45.12;102157.06;10525127;28;20098;-77
2022/04/03 12:27:33;;;;;;;0.00;0.00;;;;;;;9.03;47.42;102152.50;10525175;28;20067;-76
2022/04/03 12:32:36;;;;;;;0.00;0.00;;;;;;;9.36;45.19;102163.66;10542720;28;20480;-76
2022/04/03 12:37:42;;;;;;;0.00;0.00;;;;;;;9.65;46.29;102155.63;10542657;28;20058;-75
2022/04/03 12:42:45;;;;;;;0.25;0.20;;;;;;;9.57;47.92;102146.66;10541983;28;20043;-76
2022/04/03 12:54:44;;;;;;;0.00;0.00;;;;;;;7.66;54.31;102156.09;10500435;28;20056;-75
2022/04/03 12:59:45;;;;;;;0.10;0.10;;;;;;;7.22;56.15;102161.28;10520968;28;20166;-74
2022/04/03 13:04:58;;;;;;;0.22;0.20;;;;;;;7.02;55.11;102156.63;10541519;28;20044;-75
2022/04/03 13:10:00;;;;;;;0.00;0.00;;;;;;;7.53;53.66;102157.97;10541542;28;20051;-77
2022/04/03 13:15:02;;;;;;;0.00;0.00;;;;;;;7.05;55.64;102157.69;10523186;28;20044;-76
2022/04/03 13:20:04;;;;;;;0.00;0.00;;;;;;;7.26;57.51;102157.22;10522650;28;20044;-75
2022/04/03 13:25:06;;;;;;;0.00;0.00;;;;;;;7.93;55.16;102144.84;10556246;28;20052;-76
2022/04/03 13:30:09;;;;;;;0.00;0.00;;;;;;;9.57;52.87;102131.22;10533186;28;20044;-76
2022/04/03 13:35:10;;;;;;;0.10;0.10;;;;;;;9.71;50.27;102113.88;10540763;28;20548;-77
2022/04/03 13:40:12;;;;;;;0.00;0.00;;;;;;;9.32;48.32;102114.56;10540336;28;20068;-75
2022/04/03 13:45:13;;;;;;;0.00;0.00;;;;;;;9.56;46.49;102099.44;10522073;28;20067;-75
2022/04/03 13:50:21;;;;;;;0.03;0.03;;;;;;;9.75;45.69;102101.22;10540188;28;20044;-76
2022/04/03 13:55:24;;;;;;;0.10;0.10;;;;;;;10.15;47.69;102092.84;10539972;28;20043;-76
2022/04/03 14:00:25;;;;;;;0.00;0.00;;;;;;;10.26;45.66;102084.72;10522002;28;20395;-77
2022/04/03 14:05:27;;;;;;;0.00;0.00;;;;;;;10.16;44.87;102076.56;10539786;28;20067;-76
2022/04/03 14:10:30;;;;;;;0.00;0.00;;;;;;;8.94;46.52;102090.34;10504883;28;20055;-75
2022/04/03 14:15:32;;;;;;;0.47;0.25;;;;;;;7.44;54.13;102093.31;10521912;28;20118;-76
2022/04/03 14:20:34;;;;;;;0.63;0.30;;;;;;;7.01;60.38;102093.34;10521529;28;20071;-76
2022/04/03 14:25:36;;;;;;;0.20;0.10;;;;;;;6.91;62.22;102092.81;10521532;28;20044;-75
2022/04/03 14:30:37;;;;;;;0.00;0.00;;;;;;;7.80;62.70;102075.69;10521269;28;20052;-76
2022/04/03 14:35:49;;;;;;;0.00;0.00;;;;;;;8.65;58.64;102064.00;10541097;28;20040;-76
2022/04/03 14:40:56;;;;;;;0.00;0.00;;;;;;;9.46;55.32;102061.19;10547416;28;20095;-77
2022/04/03 14:45:59;;;;;;;0.00;0.00;;;;;;;9.10;51.90;102050.84;10548229;28;20060;-76
2022/04/03 14:51:00;;;;;;;0.00;0.00;;;;;;;8.99;50.25;102053.78;10547484;28;20088;-76
2022/04/03 14:56:03;;;;;;;0.00;0.00;;;;;;;9.12;49.20;102047.56;10546704;28;20093;-75
2022/04/03 15:01:05;;;;;;;0.00;0.00;;;;;;;9.62;47.62;102042.28;10528368;28;20114;-74
2022/04/03 15:06:07;;;;;;;0.00;0.00;;;;;;;10.33;48.38;102040.41;10546482;28;20490;-76
2022/04/03 15:11:34;;;;;;;0.00;0.00;;;;;;;9.82;49.34;102027.78;10546159;28;20048;-75
2022/04/03 15:16:35;;;;;;;0.00;0.00;;;;;;;9.93;49.82;102028.28;10546152;28;20040;-75
2022/04/03 15:21:37;;;;;;;0.00;0.00;;;;;;;9.59;47.76;102031.81;10545773;28;20502;-75
2022/04/03 15:26:39;;;;;;;0.00;0.00;;;;;;;8.82;48.89;102028.91;10527616;28;20044;-76
2022/04/03 15:31:41;;;;;;;0.30;0.13;;;;;;;8.48;49.98;102022.91;10544989;28;20083;-75
2022/04/03 15:36:43;;;;;;;0.10;0.10;;;;;;;9.30;49.76;102015.84;10545189;28;20554;-76
2022/04/03 15:41:45;;;;;;;0.00;0.00;;;;;;;9.45;49.63;102006.31;10544514;28;20086;-76
2022/04/03 15:46:46;;;;;;;0.15;0.10;;;;;;;9.69;48.41;102018.59;10544000;28;20071;-76
2022/04/03 15:51:48;;;;;;;0.20;0.20;;;;;;;9.42;48.94;102011.31;10514443;28;20552;-76
2022/04/03 15:56:50;;;;;;;0.00;0.00;;;;;;;9.36;49.74;102018.72;10526887;28;20083;-76
2022/04/03 16:01:52;;;;;;;0.43;0.25;;;;;;;9.15;51.21;102014.28;10526158;28;20070;-76
2022/04/03 16:06:54;;;;;;;0.00;0.00;;;;;;;9.21;50.66;102018.88;10542646;28;20048;-76
2022/04/03 16:11:55;;;;;;;0.28;0.28;;;;;;;8.85;51.00;102019.66;10543634;28;20127;-75
2022/04/03 16:23:51;;;;;;;0.00;0.00;;;;;;;8.80;50.17;102015.97;10543817;28;20028;-75
2022/04/03 16:28:53;;;;;;;1.08;0.90;;;;;;;8.80;50.58;102015.09;10525127;28;20468;-75
2022/04/03 16:33:56;;;;;;;0.00;0.00;;;;;;;8.85;51.43;102022.22;10524666;28;20533;-76
2022/04/03 16:38:58;;;;;;;0.00;0.00;;;;;;;8.25;52.25;102017.41;10543456;28;20093;-75
2022/04/03 16:44:00;;;;;;;0.00;0.00;;;;;;;7.96;54.00;102020.06;10524130;28;20068;-76
2022/04/03 16:49:01;;;;;;;0.00;0.00;;;;;;;7.71;55.40;102011.03;10540545;28;20079;-76
2022/04/03 16:54:05;;;;;;;0.00;0.00;;;;;;;7.56;55.38;102019.63;10542021;28;20040;-75
2022/04/03 16:59:07;;;;;;;0.00;0.00;;;;;;;8.10;54.56;102006.31;10540729;28;20079;-76
2022/04/03 17:04:10;;;;;;;0.00;0.00;;;;;;;7.75;55.18;102020.69;10544680;28;20036;-76
2022/04/03 17:09:11;;;;;;;0.00;0.00;;;;;;;7.53;55.66;102023.69;10540440;28;20075;-76
2022/04/03 17:14:25;;;;;;;0.00;0.00;;;;;;;7.27;56.32;102016.31;10539844;28;20140;-76
2022/04/03 17:19:27;;;;;;;0.00;0.00;;;;;;;7.16;56.13;102022.50;10522361;28;20050;-77
2022/04/03 17:24:29;;;;;;;0.00;0.00;;;;;;;7.11;56.49;102023.94;10540156;28;20117;-76
2022/04/03 17:29:58;;;;;;;0.00;0.00;;;;;;;7.04;57.37;102026.91;10521332;28;20040;-76
2022/04/03 17:35:00;;;;;;;0.98;0.38;;;;;;;6.81;58.03;102032.44;10538692;28;20093;-77
2022/04/03 17:40:08;;;;;;;0.00;0.00;;;;;;;6.34;58.80;102036.47;10521363;28;20056;-76
2022/04/03 17:45:09;;;;;;;0.00;0.00;;;;;;;6.46;58.56;102038.00;10539809;28;20040;-77
2022/04/03 17:50:11;;;;;;;0.00;0.00;;;;;;;6.23;61.92;102029.78;10539577;28;20059;-75
2022/04/03 17:55:13;;;;;;;0.00;0.00;;;;;;;6.21;61.60;102033.06;10521501;28;20086;-77
2022/04/03 18:00:16;;;;;;;0.00;0.00;;;;;;;5.66;65.14;102021.97;10538740;28;20040;-77
2022/04/03 18:11:48;;;;;;;0.00;0.00;;;;;;;6.11;65.31;102018.81;10537166;28;20062;-77
2022/04/03 18:16:56;;;;;;;0.00;0.00;;;;;;;6.16;65.77;102030.22;10519981;28;20064;-77
2022/04/03 18:22:01;;;;;;;0.00;0.00;;;;;;;6.15;65.99;102018.19;10520184;28;20040;-77
2022/04/03 18:27:27;;;;;;;0.00;0.00;;;;;;;6.10;66.30;102020.50;10535859;28;20105;-78
2022/04/03 18:32:29;;;;;;;0.00;0.00;;;;;;;6.18;66.12;102031.19;10520668;28;20105;-77
2022/04/03 18:37:32;;;;;;;0.00;0.00;;;;;;;5.95;66.94;102040.84;10523140;28;20052;-78
2022/04/03 18:42:38;;;;;;;0.00;0.00;;;;;;;5.71;67.89;102045.28;10518267;28;20064;-77
2022/04/03 18:47:40;;;;;;;0.43;0.43;;;;;;;5.66;67.23;102047.56;10536662;28;20089;-77
2022/04/03 18:52:42;;;;;;;0.00;0.00;;;;;;;5.35;67.16;102050.66;10536210;28;20119;-78
2022/04/03 18:57:43;;;;;;;0.00;0.00;;;;;;;5.29;67.62;102045.16;10518635;28;20083;-78
2022/04/03 19:02:45;;;;;;;0.00;0.00;;;;;;;5.21;67.27;102046.31;10532144;28;20043;-78
2022/04/03 19:07:50;;;;;;;0.00;0.00;;;;;;;4.94;67.18;102046.25;10536037;28;20059;-76
2022/04/03 19:12:52;;;;;;;0.00;0.00;;;;;;;4.57;67.51;102043.75;10518551;28;20491;-78
2022/04/03 19:17:53;;;;;;;0.00;0.00;;;;;;;4.45;68.08;102038.69;10518446;28;20077;-78
2022/04/03 19:23:11;;;;;;;0.00;0.00;;;;;;;4.80;67.67;102032.56;10539022;28;20036;-77
2022/04/03 19:28:38;;;;;;;0.00;0.00;;;;;;;4.70;67.81;102041.25;10527618;28;20051;-77
2022/04/03 19:33:41;;;;;;;0.00;0.00;;;;;;;4.79;67.60;102046.09;10542281;28;20040;-77
2022/04/03 19:38:42;;;;;;;0.00;0.00;;;;;;;4.99;67.58;102044.91;10524730;28;20530;-76
2022/04/03 19:43:44;;;;;;;0.00;0.00;;;;;;;5.12;66.41;102040.59;10542194;28;20466;-77
2022/04/03 19:48:45;;;;;;;0.00;0.00;;;;;;;4.96;66.18;102034.47;10524393;28;20506;-77
2022/04/03 19:53:47;;;;;;;0.00;0.00;;;;;;;4.93;65.04;102029.16;10524666;28;20140;-77
2022/04/03 19:58:48;;;;;;;0.00;0.00;;;;;;;4.53;65.92;102018.78;10525074;28;20072;-78
2022/04/03 20:03:50;;;;;;;2.17;0.55;;;;;;;4.20;66.32;102020.81;10525692;28;20131;-76
2022/04/03 20:08:52;;;;;;;0.00;0.00;;;;;;;4.24;66.57;102015.13;10525330;28;20048;-76
2022/04/03 20:13:55;;;;;;;0.00;0.00;;;;;;;3.91;66.34;102006.91;10543325;28;20039;-76
2022/04/03 20:18:59;;;;;;;0.00;0.00;;;;;;;3.86;67.72;102004.03;10525281;28;20051;-76
2022/04/03 20:24:01;;;;;;;0.00;0.00;;;;;;;3.37;69.47;102016.66;10542879;28;20083;-76
2022/04/03 20:29:04;;;;;;;0.00;0.00;;;;;;;3.51;68.34;102011.69;10543049;28;20524;-77
2022/04/03 20:34:06;;;;;;;0.00;0.00;;;;;;;3.81;67.18;102007.88;10522987;28;20047;-76
2022/04/03 20:39:08;;;;;;;0.73;0.40;;;;;;;3.63;66.97;101999.81;10523413;28;20075;-76
2022/04/03 20:44:15;;;;;;;0.00;0.00;;;;;;;3.34;67.64;102006.25;10523596;28;20059;-77
2022/04/03 20:49:16;;;;;;;0.55;0.55;;;;;;;3.62;67.29;102003.13;10542036;28;20036;-76
2022/04/03 20:54:18;;;;;;;0.15;0.08;;;;;;;3.53;67.71;101999.94;10541453;28;20044;-77
2022/04/03 20:59:20;;;;;;;0.00;0.00;;;;;;;3.59;67.17;101992.72;10541283;28;20048;-77
2022/04/03 21:04:25;;;;;;;0.63;0.30;;;;;;;3.17;68.12;102003.34;10522593;28;20085;-77
2022/04/03 21:09:26;;;;;;;0.10;0.10;;;;;;;3.20;68.46;102001.78;10539309;28;20059;-76
2022/04/03 21:14:29;;;;;;;0.95;0.95;;;;;;;3.10;69.38;101990.91;10505603;28;20487;-76
2022/04/03 21:19:31;;;;;;;0.40;0.20;;;;;;;3.05;69.53;102001.56;10522294;28;20506;-77
2022/04/03 21:24:38;;;;;;;1.35;0.88;;;;;;;3.31;69.00;101981.44;10522246;28;20102;-77
2022/04/03 21:29:40;;;;;;;0.00;0.00;;;;;;;3.37;68.75;101968.25;10521927;28;20044;-76
2022/04/03 21:34:44;;;;;;;0.00;0.00;;;;;;;3.28;69.21;101970.13;10539960;28;20025;-77
2022/04/03 21:39:46;;;;;;;0.65;0.32;;;;;;;3.29;68.70;101970.25;10521179;28;20109;-76
2022/04/03 21:44:47;;;;;;;0.52;0.28;;;;;;;3.12;69.62;101961.38;10520672;28;20097;-76
2022/04/03 21:49:49;;;;;;;1.27;0.80;;;;;;;3.17;69.88;101969.34;10520027;28;20126;-75
2022/04/03 21:54:51;;;;;;;0.43;0.20;;;;;;;3.13;69.65;101965.69;10539602;28;20063;-77
2022/04/03 21:59:53;;;;;;;0.13;0.10;;;;;;;3.03;70.34;101963.25;10530832;28;20072;-77
2022/04/03 22:04:54;;;;;;;0.17;0.17;;;;;;;3.05;69.94;101955.72;10539140;28;20101;-76
2022/04/03 22:09:56;;;;;;;1.17;0.32;;;;;;;2.83;69.56;101949.94;10522127;28;20052;-76
2022/04/03 22:14:58;;;;;;;0.22;0.22;;;;;;;2.70;70.69;101952.34;10539564;28;20047;-76
2022/04/03 22:20:00;;;;;;;0.50;0.50;;;;;;;2.72;71.42;101948.22;10521304;28;20056;-77
2022/04/03 22:25:03;;;;;;;2.53;1.02;;;;;;;2.79;70.89;101937.75;10521568;28;20048;-76
2022/04/03 22:30:06;;;;;;;1.77;1.50;;;;;;;2.79;71.77;101935.19;10538953;28;20093;-77
2022/04/03 22:35:08;;;;;;;0.98;0.47;;;;;;;2.73;71.66;101924.56;10520775;28;20463;-76
2022/04/03 22:40:14;;;;;;;0.10;0.10;;;;;;;2.84;71.54;101915.19;10538693;28;20493;-77
2022/04/03 22:45:15;;;;;;;0.35;0.35;;;;;;;2.68;72.04;101918.25;10538795;28;20044;-77
2022/04/03 22:50:17;;;;;;;0.55;0.55;;;;;;;2.49;72.42;101911.81;10554538;28;20075;-76
2022/04/03 22:55:19;;;;;;;0.60;0.35;;;;;;;2.67;72.56;101906.31;10520616;28;20032;-77
2022/04/03 23:00:20;;;;;;;0.00;0.00;;;;;;;2.96;72.21;101905.00;10510805;28;20113;-77
2022/04/03 23:05:22;;;;;;;1.35;0.45;;;;;;;2.77;72.52;101898.59;10546318;28;20040;-76
2022/04/03 23:10:24;;;;;;;2.40;1.17;;;;;;;2.63;72.97;101894.13;10545407;28;20048;-76
2022/04/03 23:15:28;;;;;;;1.65;0.85;;;;;;;2.68;72.90;101880.97;10546324;28;20044;-76
2022/04/03 23:20:29;;;;;;;0.63;0.50;;;;;;;2.57;72.95;101879.28;10546193;28;20064;-77
2022/04/03 23:25:31;;;;;;;0.35;0.32;;;;;;;2.40;73.33;101869.50;10527734;28;20040;-76
2022/04/03 23:30:33;;;;;;;0.10;0.10;;;;;;;2.34;72.66;101864.88;10545721;28;20126;-76
2022/04/03 23:35:34;;;;;;;2.67;1.48;;;;;;;2.00;73.88;101868.31;10527278;28;20506;-76
2022/04/03 23:40:36;;;;;;;0.98;0.65;;;;;;;1.97;74.58;101862.09;10545018;28;20073;-77
2022/04/03 23:45:38;;;;;;;4.70;1.88;;;;;;;2.03;74.42;101848.19;10509813;28;20460;-76
2022/04/03 23:50:41;;;;;;;8.82;1.75;;;;;;;1.86;74.33;101854.53;10543442;28;20102;-76
2022/04/03 23:55:43;;;;;;;3.85;2.45;;;;;;;1.98;74.82;101848.59;10544450;28;20044;-76
